sensor_id;sensor_type;location;lat;lon;timestamp;P1;durP1;ratioP1;P2;durP2;ratioP2
24859;SDS011;12936;52.006;4.350;2023-07-22T00:02:08;10.05;;;5.60;;
24859;SDS011;12936;52.006;4.350;2023-07-22T00:04:57;9.35;;;5.60;;
24859;SDS011;12936;52.006;4.350;2023-07-22T00:08:12;7.55;;;5.72;;
24859;SDS011;12936;52.006;4.350;2023-07-22T00:10:50;8.35;;;5.78;;
24859;SDS011;12936;52.006;4.350;2023-07-22T00:13:24;7.47;;;5.75;;
24859;SDS011;12936;52.006;4.350;2023-07-22T00:16:18;8.05;;;5.68;;
24859;SDS011;12936;52.006;4.350;2023-07-22T00:19:50;8.02;;;5.47;;
24859;SDS011;12936;52.006;4.350;2023-07-22T00:23:00;6.28;;;5.47;;
24859;SDS011;12936;52.006;4.350;2023-07-22T00:25:53;7.93;;;5.20;;
24859;SDS011;12936;52.006;4.350;2023-07-22T00:28:49;8.85;;;5.40;;
24859;SDS011;12936;52.006;4.350;2023-07-22T00:31:23;6.70;;;5.18;;
24859;SDS011;12936;52.006;4.350;2023-07-22T00:33:54;6.97;;;5.38;;
24859;SDS011;12936;52.006;4.350;2023-07-22T00:36:39;8.48;;;5.80;;
24859;SDS011;12936;52.006;4.350;2023-07-22T00:39:38;9.20;;;5.45;;
24859;SDS011;12936;52.006;4.350;2023-07-22T00:42:45;6.28;;;4.97;;
24859;SDS011;12936;52.006;4.350;2023-07-22T00:45:31;9.98;;;5.28;;
24859;SDS011;12936;52.006;4.350;2023-07-22T00:48:15;7.35;;;5.30;;
24859;SDS011;12936;52.006;4.350;2023-07-22T00:50:51;6.60;;;5.30;;
24859;SDS011;12936;52.006;4.350;2023-07-22T00:53:20;7.85;;;5.50;;
24859;SDS011;12936;52.006;4.350;2023-07-22T00:55:53;8.15;;;5.22;;
24859;SDS011;12936;52.006;4.350;2023-07-22T00:58:22;7.95;;;5.07;;
24859;SDS011;12936;52.006;4.350;2023-07-22T01:00:52;6.82;;;5.25;;
24859;SDS011;12936;52.006;4.350;2023-07-22T01:03:22;8.35;;;4.95;;
24859;SDS011;12936;52.006;4.350;2023-07-22T01:05:55;6.63;;;5.05;;
24859;SDS011;12936;52.006;4.350;2023-07-22T01:08:25;8.48;;;4.85;;
24859;SDS011;12936;52.006;4.350;2023-07-22T01:10:55;6.63;;;4.72;;
24859;SDS011;12936;52.006;4.350;2023-07-22T01:13:27;10.60;;;5.18;;
24859;SDS011;12936;52.006;4.350;2023-07-22T01:16:01;7.07;;;4.75;;
24859;SDS011;12936;52.006;4.350;2023-07-22T01:18:37;6.75;;;4.45;;
24859;SDS011;12936;52.006;4.350;2023-07-22T01:21:06;6.55;;;4.93;;
24859;SDS011;12936;52.006;4.350;2023-07-22T01:23:41;8.20;;;4.25;;
24859;SDS011;12936;52.006;4.350;2023-07-22T01:26:12;5.28;;;4.30;;
24859;SDS011;12936;52.006;4.350;2023-07-22T01:28:41;9.73;;;4.63;;
24859;SDS011;12936;52.006;4.350;2023-07-22T01:31:11;6.45;;;4.40;;
24859;SDS011;12936;52.006;4.350;2023-07-22T01:33:40;6.90;;;4.45;;
24859;SDS011;12936;52.006;4.350;2023-07-22T01:36:13;8.80;;;4.68;;
24859;SDS011;12936;52.006;4.350;2023-07-22T01:38:53;5.45;;;4.10;;
24859;SDS011;12936;52.006;4.350;2023-07-22T01:41:23;8.55;;;4.50;;
24859;SDS011;12936;52.006;4.350;2023-07-22T01:43:54;5.57;;;4.35;;
24859;SDS011;12936;52.006;4.350;2023-07-22T01:46:31;8.50;;;4.30;;
24859;SDS011;12936;52.006;4.350;2023-07-22T01:49:06;7.03;;;4.30;;
24859;SDS011;12936;52.006;4.350;2023-07-22T01:51:39;9.10;;;4.50;;
24859;SDS011;12936;52.006;4.350;2023-07-22T01:54:12;6.13;;;4.90;;
24859;SDS011;12936;52.006;4.350;2023-07-22T01:56:45;7.10;;;4.30;;
24859;SDS011;12936;52.006;4.350;2023-07-22T01:59:15;5.07;;;3.88;;
24859;SDS011;12936;52.006;4.350;2023-07-22T02:01:47;7.90;;;4.50;;
24859;SDS011;12936;52.006;4.350;2023-07-22T02:04:36;6.22;;;3.75;;
24859;SDS011;12936;52.006;4.350;2023-07-22T02:07:29;6.97;;;4.22;;
24859;SDS011;12936;52.006;4.350;2023-07-22T02:10:15;7.80;;;4.40;;
24859;SDS011;12936;52.006;4.350;2023-07-22T02:13:31;5.47;;;3.97;;
24859;SDS011;12936;52.006;4.350;2023-07-22T02:16:07;6.10;;;4.07;;
24859;SDS011;12936;52.006;4.350;2023-07-22T02:18:39;7.05;;;4.22;;
24859;SDS011;12936;52.006;4.350;2023-07-22T02:21:14;6.75;;;4.38;;
24859;SDS011;12936;52.006;4.350;2023-07-22T02:23:50;6.00;;;3.80;;
24859;SDS011;12936;52.006;4.350;2023-07-22T02:26:28;4.97;;;4.22;;
24859;SDS011;12936;52.006;4.350;2023-07-22T02:29:24;5.35;;;3.88;;
24859;SDS011;12936;52.006;4.350;2023-07-22T02:32:17;6.60;;;3.95;;
24859;SDS011;12936;52.006;4.350;2023-07-22T02:35:03;5.70;;;4.10;;
24859;SDS011;12936;52.006;4.350;2023-07-22T02:37:35;6.85;;;3.90;;
24859;SDS011;12936;52.006;4.350;2023-07-22T02:40:07;7.40;;;3.67;;
24859;SDS011;12936;52.006;4.350;2023-07-22T02:42:45;6.63;;;4.07;;
24859;SDS011;12936;52.006;4.350;2023-07-22T02:45:14;5.63;;;3.97;;
24859;SDS011;12936;52.006;4.350;2023-07-22T02:47:46;5.55;;;3.47;;
24859;SDS011;12936;52.006;4.350;2023-07-22T02:50:37;5.90;;;3.72;;
24859;SDS011;12936;52.006;4.350;2023-07-22T02:53:28;5.97;;;3.97;;
24859;SDS011;12936;52.006;4.350;2023-07-22T02:56:01;7.10;;;3.60;;
24859;SDS011;12936;52.006;4.350;2023-07-22T03:01:53;7.22;;;3.80;;
24859;SDS011;12936;52.006;4.350;2023-07-22T03:04:31;5.15;;;3.55;;
24859;SDS011;12936;52.006;4.350;2023-07-22T03:07:29;7.45;;;3.50;;
24859;SDS011;12936;52.006;4.350;2023-07-22T03:10:17;5.18;;;3.75;;
24859;SDS011;12936;52.006;4.350;2023-07-22T03:13:03;5.65;;;3.60;;
24859;SDS011;12936;52.006;4.350;2023-07-22T03:16:05;4.45;;;3.03;;
24859;SDS011;12936;52.006;4.350;2023-07-22T03:18:42;6.43;;;3.53;;
24859;SDS011;12936;52.006;4.350;2023-07-22T03:21:36;5.72;;;3.47;;
24859;SDS011;12936;52.006;4.350;2023-07-22T03:24:13;4.45;;;3.38;;
24859;SDS011;12936;52.006;4.350;2023-07-22T03:26:42;4.45;;;3.08;;
24859;SDS011;12936;52.006;4.350;2023-07-22T03:29:16;6.57;;;3.10;;
24859;SDS011;12936;52.006;4.350;2023-07-22T03:32:11;5.43;;;3.03;;
24859;SDS011;12936;52.006;4.350;2023-07-22T03:34:45;6.43;;;3.40;;
24859;SDS011;12936;52.006;4.350;2023-07-22T03:37:36;5.15;;;3.53;;
24859;SDS011;12936;52.006;4.350;2023-07-22T03:40:06;3.78;;;3.00;;
24859;SDS011;12936;52.006;4.350;2023-07-22T03:42:45;4.20;;;3.10;;
24859;SDS011;12936;52.006;4.350;2023-07-22T03:45:16;3.83;;;2.92;;
24859;SDS011;12936;52.006;4.350;2023-07-22T03:48:09;5.55;;;3.20;;
24859;SDS011;12936;52.006;4.350;2023-07-22T03:51:02;6.60;;;3.53;;
24859;SDS011;12936;52.006;4.350;2023-07-22T03:54:07;8.73;;;4.35;;
24859;SDS011;12936;52.006;4.350;2023-07-22T03:56:50;8.23;;;4.00;;
24859;SDS011;12936;52.006;4.350;2023-07-22T03:59:27;5.75;;;4.28;;
24859;SDS011;12936;52.006;4.350;2023-07-22T04:01:56;9.38;;;4.60;;
24859;SDS011;12936;52.006;4.350;2023-07-22T04:04:29;9.85;;;5.47;;
24859;SDS011;12936;52.006;4.350;2023-07-22T04:07:06;11.85;;;6.10;;
24859;SDS011;12936;52.006;4.350;2023-07-22T04:09:41;12.13;;;7.45;;
24859;SDS011;12936;52.006;4.350;2023-07-22T04:12:15;11.93;;;7.32;;
24859;SDS011;12936;52.006;4.350;2023-07-22T04:14:46;26.83;;;8.30;;
24859;SDS011;12936;52.006;4.350;2023-07-22T04:17:41;12.15;;;6.95;;
24859;SDS011;12936;52.006;4.350;2023-07-22T04:20:22;13.40;;;7.90;;
24859;SDS011;12936;52.006;4.350;2023-07-22T04:23:13;16.27;;;9.77;;
24859;SDS011;12936;52.006;4.350;2023-07-22T04:28:35;19.02;;;9.85;;
24859;SDS011;12936;52.006;4.350;2023-07-22T04:31:04;18.83;;;10.35;;
24859;SDS011;12936;52.006;4.350;2023-07-22T04:33:37;18.02;;;9.68;;
24859;SDS011;12936;52.006;4.350;2023-07-22T04:36:17;21.33;;;11.23;;
24859;SDS011;12936;52.006;4.350;2023-07-22T04:38:50;18.15;;;10.82;;
24859;SDS011;12936;52.006;4.350;2023-07-22T04:41:48;20.92;;;11.68;;
24859;SDS011;12936;52.006;4.350;2023-07-22T04:44:29;21.80;;;11.32;;
24859;SDS011;12936;52.006;4.350;2023-07-22T04:47:01;22.35;;;11.55;;
24859;SDS011;12936;52.006;4.350;2023-07-22T04:49:51;23.65;;;12.23;;
24859;SDS011;12936;52.006;4.350;2023-07-22T04:52:24;26.17;;;12.98;;
24859;SDS011;12936;52.006;4.350;2023-07-22T04:55:16;21.35;;;13.40;;
24859;SDS011;12936;52.006;4.350;2023-07-22T04:58:05;23.58;;;14.10;;
24859;SDS011;12936;52.006;4.350;2023-07-22T05:00:43;26.17;;;14.60;;
24859;SDS011;12936;52.006;4.350;2023-07-22T05:03:20;21.10;;;13.82;;
24859;SDS011;12936;52.006;4.350;2023-07-22T05:06:14;22.63;;;14.27;;
24859;SDS011;12936;52.006;4.350;2023-07-22T05:08:48;27.23;;;15.00;;
24859;SDS011;12936;52.006;4.350;2023-07-22T05:11:22;32.30;;;14.82;;
24859;SDS011;12936;52.006;4.350;2023-07-22T05:13:56;25.63;;;14.52;;
24859;SDS011;12936;52.006;4.350;2023-07-22T05:16:52;24.83;;;15.52;;
24859;SDS011;12936;52.006;4.350;2023-07-22T05:19:21;25.52;;;15.52;;
24859;SDS011;12936;52.006;4.350;2023-07-22T05:21:50;25.52;;;14.40;;
24859;SDS011;12936;52.006;4.350;2023-07-22T05:24:22;23.98;;;15.15;;
24859;SDS011;12936;52.006;4.350;2023-07-22T05:26:50;28.02;;;14.10;;
24859;SDS011;12936;52.006;4.350;2023-07-22T05:29:34;27.85;;;15.23;;
24859;SDS011;12936;52.006;4.350;2023-07-22T05:32:03;30.35;;;14.50;;
24859;SDS011;12936;52.006;4.350;2023-07-22T05:34:39;24.77;;;14.20;;
24859;SDS011;12936;52.006;4.350;2023-07-22T05:37:07;30.08;;;14.73;;
24859;SDS011;12936;52.006;4.350;2023-07-22T05:39:36;23.77;;;14.10;;
24859;SDS011;12936;52.006;4.350;2023-07-22T05:42:09;25.05;;;14.00;;
24859;SDS011;12936;52.006;4.350;2023-07-22T05:44:38;29.58;;;14.70;;
24859;SDS011;12936;52.006;4.350;2023-07-22T05:47:06;28.25;;;14.55;;
24859;SDS011;12936;52.006;4.350;2023-07-22T05:49:34;24.50;;;13.75;;
24859;SDS011;12936;52.006;4.350;2023-07-22T05:52:02;25.08;;;13.80;;
24859;SDS011;12936;52.006;4.350;2023-07-22T05:54:30;24.98;;;13.90;;
24859;SDS011;12936;52.006;4.350;2023-07-22T05:56:59;22.55;;;13.30;;
24859;SDS011;12936;52.006;4.350;2023-07-22T05:59:28;23.38;;;12.65;;
24859;SDS011;12936;52.006;4.350;2023-07-22T06:01:57;24.17;;;12.52;;
24859;SDS011;12936;52.006;4.350;2023-07-22T06:04:25;27.50;;;13.07;;
24859;SDS011;12936;52.006;4.350;2023-07-22T06:06:53;21.98;;;12.40;;
24859;SDS011;12936;52.006;4.350;2023-07-22T06:09:22;24.75;;;12.30;;
24859;SDS011;12936;52.006;4.350;2023-07-22T06:11:50;21.25;;;11.80;;
24859;SDS011;12936;52.006;4.350;2023-07-22T06:14:21;21.55;;;11.43;;
24859;SDS011;12936;52.006;4.350;2023-07-22T06:16:49;20.02;;;12.05;;
24859;SDS011;12936;52.006;4.350;2023-07-22T06:19:20;28.30;;;11.05;;
24859;SDS011;12936;52.006;4.350;2023-07-22T06:21:49;20.17;;;10.70;;
24859;SDS011;12936;52.006;4.350;2023-07-22T06:24:19;23.48;;;11.70;;
24859;SDS011;12936;52.006;4.350;2023-07-22T06:26:47;20.30;;;11.68;;
24859;SDS011;12936;52.006;4.350;2023-07-22T06:29:15;22.10;;;10.73;;
24859;SDS011;12936;52.006;4.350;2023-07-22T06:31:45;20.95;;;11.18;;
24859;SDS011;12936;52.006;4.350;2023-07-22T06:34:14;25.52;;;11.95;;
24859;SDS011;12936;52.006;4.350;2023-07-22T06:36:43;21.20;;;10.75;;
24859;SDS011;12936;52.006;4.350;2023-07-22T06:39:11;20.13;;;10.90;;
24859;SDS011;12936;52.006;4.350;2023-07-22T06:41:39;24.50;;;10.45;;
24859;SDS011;12936;52.006;4.350;2023-07-22T06:44:07;20.35;;;11.00;;
24859;SDS011;12936;52.006;4.350;2023-07-22T06:46:35;23.00;;;10.27;;
24859;SDS011;12936;52.006;4.350;2023-07-22T06:49:04;19.58;;;9.77;;
24859;SDS011;12936;52.006;4.350;2023-07-22T06:51:33;23.85;;;9.52;;
24859;SDS011;12936;52.006;4.350;2023-07-22T06:54:01;17.23;;;10.10;;
24859;SDS011;12936;52.006;4.350;2023-07-22T06:56:29;21.98;;;9.88;;
24859;SDS011;12936;52.006;4.350;2023-07-22T06:58:58;19.10;;;9.18;;
24859;SDS011;12936;52.006;4.350;2023-07-22T07:01:26;17.27;;;9.65;;
24859;SDS011;12936;52.006;4.350;2023-07-22T07:03:54;18.10;;;9.70;;
24859;SDS011;12936;52.006;4.350;2023-07-22T07:06:24;17.42;;;8.98;;
24859;SDS011;12936;52.006;4.350;2023-07-22T07:08:51;25.55;;;10.00;;
24859;SDS011;12936;52.006;4.350;2023-07-22T07:11:20;18.92;;;10.10;;
24859;SDS011;12936;52.006;4.350;2023-07-22T07:13:48;17.17;;;9.73;;
24859;SDS011;12936;52.006;4.350;2023-07-22T07:16:20;20.05;;;9.20;;
24859;SDS011;12936;52.006;4.350;2023-07-22T07:18:50;16.63;;;9.82;;
24859;SDS011;12936;52.006;4.350;2023-07-22T07:21:18;19.10;;;8.68;;
24859;SDS011;12936;52.006;4.350;2023-07-22T07:23:48;16.05;;;9.00;;
24859;SDS011;12936;52.006;4.350;2023-07-22T07:26:18;20.42;;;9.05;;
24859;SDS011;12936;52.006;4.350;2023-07-22T07:28:46;18.67;;;9.13;;
24859;SDS011;12936;52.006;4.350;2023-07-22T07:31:15;15.65;;;8.95;;
24859;SDS011;12936;52.006;4.350;2023-07-22T07:33:43;16.52;;;8.90;;
24859;SDS011;12936;52.006;4.350;2023-07-22T07:36:11;17.25;;;8.38;;
24859;SDS011;12936;52.006;4.350;2023-07-22T07:38:39;14.15;;;8.07;;
24859;SDS011;12936;52.006;4.350;2023-07-22T07:41:09;17.17;;;7.85;;
24859;SDS011;12936;52.006;4.350;2023-07-22T07:43:39;16.20;;;8.18;;
24859;SDS011;12936;52.006;4.350;2023-07-22T07:46:17;16.13;;;8.32;;
24859;SDS011;12936;52.006;4.350;2023-07-22T07:48:49;16.17;;;8.27;;
24859;SDS011;12936;52.006;4.350;2023-07-22T07:51:20;15.25;;;7.75;;
24859;SDS011;12936;52.006;4.350;2023-07-22T07:53:50;18.92;;;8.45;;
24859;SDS011;12936;52.006;4.350;2023-07-22T07:56:22;16.88;;;8.43;;
24859;SDS011;12936;52.006;4.350;2023-07-22T07:58:51;15.55;;;8.50;;
24859;SDS011;12936;52.006;4.350;2023-07-22T08:01:22;19.10;;;8.57;;
24859;SDS011;12936;52.006;4.350;2023-07-22T08:03:51;13.82;;;7.35;;
24859;SDS011;12936;52.006;4.350;2023-07-22T08:06:20;14.90;;;7.50;;
24859;SDS011;12936;52.006;4.350;2023-07-22T08:08:48;15.77;;;7.18;;
24859;SDS011;12936;52.006;4.350;2023-07-22T08:11:16;14.00;;;6.78;;
24859;SDS011;12936;52.006;4.350;2023-07-22T08:13:46;15.73;;;6.10;;
24859;SDS011;12936;52.006;4.350;2023-07-22T08:16:14;10.73;;;5.95;;
24859;SDS011;12936;52.006;4.350;2023-07-22T08:18:42;9.88;;;4.95;;
24859;SDS011;12936;52.006;4.350;2023-07-22T08:21:13;11.48;;;4.63;;
24859;SDS011;12936;52.006;4.350;2023-07-22T08:23:41;9.45;;;4.47;;
24859;SDS011;12936;52.006;4.350;2023-07-22T08:26:12;10.85;;;4.70;;
24859;SDS011;12936;52.006;4.350;2023-07-22T08:28:40;7.93;;;3.92;;
24859;SDS011;12936;52.006;4.350;2023-07-22T08:31:09;7.97;;;3.53;;
24859;SDS011;12936;52.006;4.350;2023-07-22T08:33:37;14.13;;;3.90;;
24859;SDS011;12936;52.006;4.350;2023-07-22T08:36:07;9.32;;;3.35;;
24859;SDS011;12936;52.006;4.350;2023-07-22T08:38:36;9.13;;;3.10;;
24859;SDS011;12936;52.006;4.350;2023-07-22T08:41:05;11.85;;;4.15;;
24859;SDS011;12936;52.006;4.350;2023-07-22T08:43:34;9.20;;;3.55;;
24859;SDS011;12936;52.006;4.350;2023-07-22T08:46:12;8.43;;;2.90;;
24859;SDS011;12936;52.006;4.350;2023-07-22T08:48:41;8.98;;;3.33;;
24859;SDS011;12936;52.006;4.350;2023-07-22T08:51:15;4.32;;;2.60;;
24859;SDS011;12936;52.006;4.350;2023-07-22T08:53:46;6.75;;;3.05;;
24859;SDS011;12936;52.006;4.350;2023-07-22T08:56:19;7.50;;;2.70;;
24859;SDS011;12936;52.006;4.350;2023-07-22T08:58:47;7.53;;;2.92;;
24859;SDS011;12936;52.006;4.350;2023-07-22T09:01:18;10.77;;;2.90;;
24859;SDS011;12936;52.006;4.350;2023-07-22T09:03:49;7.57;;;2.78;;
24859;SDS011;12936;52.006;4.350;2023-07-22T09:06:19;11.93;;;2.97;;
24859;SDS011;12936;52.006;4.350;2023-07-22T09:08:53;7.57;;;2.75;;
24859;SDS011;12936;52.006;4.350;2023-07-22T09:11:24;5.25;;;2.20;;
24859;SDS011;12936;52.006;4.350;2023-07-22T09:13:54;8.77;;;2.97;;
24859;SDS011;12936;52.006;4.350;2023-07-22T09:16:26;10.32;;;2.85;;
24859;SDS011;12936;52.006;4.350;2023-07-22T09:18:58;7.82;;;2.90;;
24859;SDS011;12936;52.006;4.350;2023-07-22T09:21:27;4.82;;;2.55;;
24859;SDS011;12936;52.006;4.350;2023-07-22T09:23:55;8.00;;;2.70;;
24859;SDS011;12936;52.006;4.350;2023-07-22T09:26:24;4.07;;;2.38;;
24859;SDS011;12936;52.006;4.350;2023-07-22T09:28:53;6.82;;;2.55;;
24859;SDS011;12936;52.006;4.350;2023-07-22T09:31:23;12.10;;;4.07;;
24859;SDS011;12936;52.006;4.350;2023-07-22T09:33:54;13.57;;;3.50;;
24859;SDS011;12936;52.006;4.350;2023-07-22T09:36:22;8.38;;;3.00;;
24859;SDS011;12936;52.006;4.350;2023-07-22T09:38:58;7.90;;;3.75;;
24859;SDS011;12936;52.006;4.350;2023-07-22T09:41:30;8.32;;;3.28;;
24859;SDS011;12936;52.006;4.350;2023-07-22T09:44:01;12.00;;;3.50;;
24859;SDS011;12936;52.006;4.350;2023-07-22T09:46:32;7.00;;;2.95;;
24859;SDS011;12936;52.006;4.350;2023-07-22T09:49:04;5.90;;;2.70;;
24859;SDS011;12936;52.006;4.350;2023-07-22T09:51:33;8.50;;;3.28;;
24859;SDS011;12936;52.006;4.350;2023-07-22T09:54:22;6.68;;;3.05;;
24859;SDS011;12936;52.006;4.350;2023-07-22T09:56:56;6.85;;;3.45;;
24859;SDS011;12936;52.006;4.350;2023-07-22T09:59:25;7.03;;;3.72;;
24859;SDS011;12936;52.006;4.350;2023-07-22T10:02:02;10.07;;;4.03;;
24859;SDS011;12936;52.006;4.350;2023-07-22T10:04:32;8.88;;;3.35;;
24859;SDS011;12936;52.006;4.350;2023-07-22T10:07:02;11.23;;;3.58;;
24859;SDS011;12936;52.006;4.350;2023-07-22T10:09:33;7.63;;;3.00;;
24859;SDS011;12936;52.006;4.350;2023-07-22T10:12:06;6.93;;;2.72;;
24859;SDS011;12936;52.006;4.350;2023-07-22T10:14:35;5.90;;;2.42;;
24859;SDS011;12936;52.006;4.350;2023-07-22T10:17:06;3.88;;;2.70;;
24859;SDS011;12936;52.006;4.350;2023-07-22T10:19:37;6.93;;;2.63;;
24859;SDS011;12936;52.006;4.350;2023-07-22T10:22:07;11.63;;;3.47;;
24859;SDS011;12936;52.006;4.350;2023-07-22T10:24:36;7.45;;;2.40;;
24859;SDS011;12936;52.006;4.350;2023-07-22T10:27:08;7.15;;;2.55;;
24859;SDS011;12936;52.006;4.350;2023-07-22T10:29:36;6.82;;;2.30;;
24859;SDS011;12936;52.006;4.350;2023-07-22T10:32:08;5.32;;;2.22;;
24859;SDS011;12936;52.006;4.350;2023-07-22T10:34:36;3.70;;;1.80;;
24859;SDS011;12936;52.006;4.350;2023-07-22T10:37:04;5.72;;;1.70;;
24859;SDS011;12936;52.006;4.350;2023-07-22T10:39:38;5.13;;;2.05;;
24859;SDS011;12936;52.006;4.350;2023-07-22T10:42:06;6.85;;;1.83;;
24859;SDS011;12936;52.006;4.350;2023-07-22T10:44:35;2.97;;;1.77;;
24859;SDS011;12936;52.006;4.350;2023-07-22T10:47:05;6.18;;;1.70;;
24859;SDS011;12936;52.006;4.350;2023-07-22T10:49:45;3.88;;;2.03;;
24859;SDS011;12936;52.006;4.350;2023-07-22T10:52:16;2.35;;;1.80;;
24859;SDS011;12936;52.006;4.350;2023-07-22T10:55:15;3.75;;;1.50;;
24859;SDS011;12936;52.006;4.350;2023-07-22T10:57:50;2.60;;;1.63;;
24859;SDS011;12936;52.006;4.350;2023-07-22T11:00:20;3.20;;;1.70;;
24859;SDS011;12936;52.006;4.350;2023-07-22T11:05:53;3.67;;;1.60;;
24859;SDS011;12936;52.006;4.350;2023-07-22T11:08:36;3.85;;;1.73;;
24859;SDS011;12936;52.006;4.350;2023-07-22T11:11:06;3.83;;;1.67;;
24859;SDS011;12936;52.006;4.350;2023-07-22T11:13:35;5.20;;;1.65;;
24859;SDS011;12936;52.006;4.350;2023-07-22T11:16:09;7.18;;;1.63;;
24859;SDS011;12936;52.006;4.350;2023-07-22T11:18:38;4.00;;;1.45;;
24859;SDS011;12936;52.006;4.350;2023-07-22T11:21:09;2.80;;;1.40;;
24859;SDS011;12936;52.006;4.350;2023-07-22T11:23:38;8.93;;;1.70;;
24859;SDS011;12936;52.006;4.350;2023-07-22T11:26:06;3.53;;;1.42;;
24859;SDS011;12936;52.006;4.350;2023-07-22T11:28:36;3.22;;;1.33;;
24859;SDS011;12936;52.006;4.350;2023-07-22T11:31:04;2.70;;;1.40;;
24859;SDS011;12936;52.006;4.350;2023-07-22T11:33:39;3.30;;;1.70;;
24859;SDS011;12936;52.006;4.350;2023-07-22T11:36:11;3.45;;;1.77;;
24859;SDS011;12936;52.006;4.350;2023-07-22T11:38:40;5.35;;;1.40;;
24859;SDS011;12936;52.006;4.350;2023-07-22T11:41:08;2.40;;;1.60;;
24859;SDS011;12936;52.006;4.350;2023-07-22T11:43:37;3.95;;;1.40;;
24859;SDS011;12936;52.006;4.350;2023-07-22T11:46:05;3.50;;;1.50;;
24859;SDS011;12936;52.006;4.350;2023-07-22T11:48:34;6.13;;;1.50;;
24859;SDS011;12936;52.006;4.350;2023-07-22T11:51:02;4.03;;;1.40;;
24859;SDS011;12936;52.006;4.350;2023-07-22T11:53:33;2.92;;;1.13;;
24859;SDS011;12936;52.006;4.350;2023-07-22T11:56:02;4.35;;;1.40;;
24859;SDS011;12936;52.006;4.350;2023-07-22T11:58:30;3.88;;;1.27;;
24859;SDS011;12936;52.006;4.350;2023-07-22T12:01:02;4.32;;;1.17;;
24859;SDS011;12936;52.006;4.350;2023-07-22T12:03:32;3.83;;;1.38;;
24859;SDS011;12936;52.006;4.350;2023-07-22T12:06:02;3.15;;;1.30;;
24859;SDS011;12936;52.006;4.350;2023-07-22T12:08:31;3.53;;;1.15;;
24859;SDS011;12936;52.006;4.350;2023-07-22T12:11:03;3.25;;;1.50;;
24859;SDS011;12936;52.006;4.350;2023-07-22T12:13:35;3.67;;;1.60;;
24859;SDS011;12936;52.006;4.350;2023-07-22T12:16:04;3.47;;;1.02;;
24859;SDS011;12936;52.006;4.350;2023-07-22T12:18:42;3.58;;;1.45;;
24859;SDS011;12936;52.006;4.350;2023-07-22T12:21:11;3.00;;;1.30;;
24859;SDS011;12936;52.006;4.350;2023-07-22T12:23:41;3.70;;;1.33;;
24859;SDS011;12936;52.006;4.350;2023-07-22T12:26:10;3.88;;;1.70;;
24859;SDS011;12936;52.006;4.350;2023-07-22T12:28:41;4.25;;;1.45;;
24859;SDS011;12936;52.006;4.350;2023-07-22T12:31:09;2.50;;;1.30;;
24859;SDS011;12936;52.006;4.350;2023-07-22T12:33:39;4.38;;;1.83;;
24859;SDS011;12936;52.006;4.350;2023-07-22T12:36:07;5.15;;;1.63;;
24859;SDS011;12936;52.006;4.350;2023-07-22T12:38:37;3.53;;;1.17;;
24859;SDS011;12936;52.006;4.350;2023-07-22T12:41:07;3.30;;;1.60;;
24859;SDS011;12936;52.006;4.350;2023-07-22T12:43:35;4.38;;;1.30;;
24859;SDS011;12936;52.006;4.350;2023-07-22T12:46:06;2.70;;;1.20;;
24859;SDS011;12936;52.006;4.350;2023-07-22T12:48:34;5.68;;;1.70;;
24859;SDS011;12936;52.006;4.350;2023-07-22T12:51:02;2.72;;;1.33;;
24859;SDS011;12936;52.006;4.350;2023-07-22T12:53:31;3.80;;;1.30;;
24859;SDS011;12936;52.006;4.350;2023-07-22T12:55:58;2.78;;;1.58;;
24859;SDS011;12936;52.006;4.350;2023-07-22T12:58:30;4.85;;;1.38;;
24859;SDS011;12936;52.006;4.350;2023-07-22T13:00:58;3.78;;;1.50;;
24859;SDS011;12936;52.006;4.350;2023-07-22T13:03:26;2.72;;;1.35;;
24859;SDS011;12936;52.006;4.350;2023-07-22T13:05:55;3.95;;;1.40;;
24859;SDS011;12936;52.006;4.350;2023-07-22T13:08:23;5.28;;;1.75;;
24859;SDS011;12936;52.006;4.350;2023-07-22T13:10:51;3.55;;;1.40;;
24859;SDS011;12936;52.006;4.350;2023-07-22T13:13:19;5.25;;;1.80;;
24859;SDS011;12936;52.006;4.350;2023-07-22T13:15:50;4.15;;;1.30;;
24859;SDS011;12936;52.006;4.350;2023-07-22T13:18:19;3.75;;;1.40;;
24859;SDS011;12936;52.006;4.350;2023-07-22T13:20:48;3.72;;;1.50;;
24859;SDS011;12936;52.006;4.350;2023-07-22T13:23:16;4.82;;;1.40;;
24859;SDS011;12936;52.006;4.350;2023-07-22T13:25:45;3.03;;;1.33;;
24859;SDS011;12936;52.006;4.350;2023-07-22T13:28:13;5.40;;;1.30;;
24859;SDS011;12936;52.006;4.350;2023-07-22T13:30:41;3.55;;;1.30;;
24859;SDS011;12936;52.006;4.350;2023-07-22T13:33:11;6.03;;;1.80;;
24859;SDS011;12936;52.006;4.350;2023-07-22T13:35:39;1.65;;;1.05;;
24859;SDS011;12936;52.006;4.350;2023-07-22T13:38:07;3.35;;;1.50;;
24859;SDS011;12936;52.006;4.350;2023-07-22T13:40:35;3.78;;;1.50;;
24859;SDS011;12936;52.006;4.350;2023-07-22T13:43:03;6.20;;;1.73;;
24859;SDS011;12936;52.006;4.350;2023-07-22T13:45:32;3.45;;;1.35;;
24859;SDS011;12936;52.006;4.350;2023-07-22T13:48:00;4.90;;;1.88;;
24859;SDS011;12936;52.006;4.350;2023-07-22T13:50:29;3.55;;;1.65;;
24859;SDS011;12936;52.006;4.350;2023-07-22T13:53:01;3.75;;;1.42;;
24859;SDS011;12936;52.006;4.350;2023-07-22T13:55:30;3.70;;;1.50;;
24859;SDS011;12936;52.006;4.350;2023-07-22T13:58:02;5.00;;;1.63;;
24859;SDS011;12936;52.006;4.350;2023-07-22T14:00:30;5.90;;;1.70;;
24859;SDS011;12936;52.006;4.350;2023-07-22T14:02:58;4.75;;;1.90;;
24859;SDS011;12936;52.006;4.350;2023-07-22T14:05:30;4.47;;;1.48;;
24859;SDS011;12936;52.006;4.350;2023-07-22T14:07:59;5.13;;;1.90;;
24859;SDS011;12936;52.006;4.350;2023-07-22T14:10:27;7.80;;;1.65;;
24859;SDS011;12936;52.006;4.350;2023-07-22T14:12:56;3.97;;;1.27;;
24859;SDS011;12936;52.006;4.350;2023-07-22T14:15:24;5.25;;;1.67;;
24859;SDS011;12936;52.006;4.350;2023-07-22T14:17:53;2.90;;;1.48;;
24859;SDS011;12936;52.006;4.350;2023-07-22T14:20:24;4.38;;;1.73;;
24859;SDS011;12936;52.006;4.350;2023-07-22T14:22:54;4.15;;;1.40;;
24859;SDS011;12936;52.006;4.350;2023-07-22T14:25:24;7.43;;;1.45;;
24859;SDS011;12936;52.006;4.350;2023-07-22T14:27:52;4.57;;;1.70;;
24859;SDS011;12936;52.006;4.350;2023-07-22T14:30:21;8.32;;;1.73;;
24859;SDS011;12936;52.006;4.350;2023-07-22T14:32:50;6.40;;;1.75;;
24859;SDS011;12936;52.006;4.350;2023-07-22T14:35:23;8.23;;;1.90;;
24859;SDS011;12936;52.006;4.350;2023-07-22T14:37:52;7.63;;;1.70;;
24859;SDS011;12936;52.006;4.350;2023-07-22T14:40:22;5.22;;;1.85;;
24859;SDS011;12936;52.006;4.350;2023-07-22T14:42:50;6.78;;;1.75;;
24859;SDS011;12936;52.006;4.350;2023-07-22T14:45:19;5.10;;;1.70;;
24859;SDS011;12936;52.006;4.350;2023-07-22T14:47:48;7.53;;;1.73;;
24859;SDS011;12936;52.006;4.350;2023-07-22T14:50:16;7.53;;;1.88;;
24859;SDS011;12936;52.006;4.350;2023-07-22T14:52:49;3.55;;;1.88;;
24859;SDS011;12936;52.006;4.350;2023-07-22T14:55:18;8.18;;;1.92;;
24859;SDS011;12936;52.006;4.350;2023-07-22T14:57:50;6.03;;;2.10;;
24859;SDS011;12936;52.006;4.350;2023-07-22T15:00:20;6.63;;;1.90;;
24859;SDS011;12936;52.006;4.350;2023-07-22T15:02:50;4.95;;;2.30;;
24859;SDS011;12936;52.006;4.350;2023-07-22T15:05:19;7.13;;;2.15;;
24859;SDS011;12936;52.006;4.350;2023-07-22T15:07:51;5.88;;;2.20;;
24859;SDS011;12936;52.006;4.350;2023-07-22T15:10:23;8.23;;;1.98;;
24859;SDS011;12936;52.006;4.350;2023-07-22T15:12:53;5.38;;;1.70;;
24859;SDS011;12936;52.006;4.350;2023-07-22T15:15:22;5.72;;;1.80;;
24859;SDS011;12936;52.006;4.350;2023-07-22T15:17:51;8.20;;;2.05;;
24859;SDS011;12936;52.006;4.350;2023-07-22T15:20:19;6.38;;;1.73;;
24859;SDS011;12936;52.006;4.350;2023-07-22T15:22:47;7.30;;;2.17;;
24859;SDS011;12936;52.006;4.350;2023-07-22T15:25:15;12.05;;;2.10;;
24859;SDS011;12936;52.006;4.350;2023-07-22T15:27:43;6.57;;;1.58;;